Trine Charlotte — LMRY — position and weather

sailwx.info

Track history (hours):
 
Tides and Currents Weather Stations Pressure Air Temp Water Temp Dewpoint Dewpoint Depression Visibility Wind Speed Wind Dir Waves Ship Positions

Trine Charlotte

Last reported at 2015-Aug-02 00:33 UTC. Time now 2015-Aug-04 11:47 UTC.
Position N 69°39' E 018°58'.

Length 66 m; draft 4.6 m.

Type: Cargo ship. MMSI: 257233000.

Date/timePositionNaut miles runAvg speedWind from/ knotsBaromVisibWave heightAir tempDewpointWater temp
2015-Aug-02 00:33N 69°39' E 018°58'0 0.0
2015-Aug-01 23:33N 69°39' E 018°58'0 0.0
2015-Aug-01 22:33N 69°39' E 018°58'0 0.0
2015-Aug-01 21:33N 69°39' E 018°58'0 0.0
2015-Aug-01 20:33N 69°39' E 018°58'0 0.0
2015-Aug-01 19:33N 69°39' E 018°58'0 0.0
2015-Aug-01 18:33N 69°39' E 018°58'0 0.0
2015-Aug-01 17:33N 69°39' E 018°58'0 0.0
2015-Aug-01 16:33N 69°39' E 018°58'0 0.0
2015-Aug-01 15:33N 69°39' E 018°58'0 0.0
2015-Aug-01 14:33N 69°39' E 018°58'0 0.0
2015-Aug-01 13:33N 69°39' E 018°58'0 0.0
2015-Aug-01 12:33N 69°39' E 018°58'0 0.0
2015-Aug-01 11:33N 69°39' E 018°58'0 0.0
2015-Aug-01 10:33N 69°39' E 018°58'0 0.0
2015-Aug-01 09:33N 69°39' E 018°58'0 0.0
2015-Aug-01 08:33N 69°39' E 018°58'0 0.0
2015-Aug-01 07:33N 69°39' E 018°58'0 0.0
2015-Aug-01 06:33N 69°39' E 018°58'0 0.0
2015-Aug-01 05:33N 69°39' E 018°58'0 0.0
2015-Aug-01 04:33N 69°39' E 018°58'0 0.0
2015-Aug-01 03:33N 69°39' E 018°58'0 0.0
2015-Aug-01 02:33N 69°39' E 018°58'0 0.0
2015-Aug-01 01:33N 69°39' E 018°58'0 0.0
2015-Aug-01 00:33N 69°39' E 018°58'0 0.0
2015-Jul-31 23:33N 69°39' E 018°58'0 0.0
2015-Jul-31 22:33N 69°39' E 018°58'0 0.0
2015-Jul-31 21:33N 69°39' E 018°58'0 0.0
2015-Jul-31 20:33N 69°39' E 018°58'0 0.0
2015-Jul-31 19:33N 69°39' E 018°58'0 0.0
2015-Jul-31 18:33N 69°39' E 018°58'0 0.0
2015-Jul-31 17:33N 69°39' E 018°58'0 0.0
2015-Jul-31 16:33N 69°39' E 018°58'0 0.0
2015-Jul-31 15:33N 69°39' E 018°58'0 0.0
2015-Jul-31 14:33N 69°39' E 018°58'0 0.2
2015-Jul-31 13:33N 69°39' E 018°58'3 0.3
2015-Jul-31 04:08N 69°42' E 019°01'0 0.0
2015-Jul-31 03:32N 69°42' E 019°01'0 0.0
2015-Jul-31 02:31N 69°42' E 019°01'0 0.0
2015-Jul-31 01:33N 69°42' E 019°01'2 0.1
2015-Jul-29 13:33N 69°40' E 018°58'0 0.0
2015-Jul-29 12:33N 69°40' E 018°58'0 0.0
2015-Jul-29 11:33N 69°40' E 018°58'0 0.0
2015-Jul-29 08:33N 69°40' E 018°58'0 0.3
2015-Jul-29 07:33N 69°40' E 018°58'0 0.0
2015-Jul-29 06:34N 69°40' E 018°58'0 0.0
2015-Jul-29 05:34N 69°40' E 018°58'0 0.0
2015-Jul-29 04:33N 69°40' E 018°58'0 0.0
2015-Jul-29 03:34N 69°40' E 018°58'0 0.0
2015-Jul-29 02:33N 69°40' E 018°58'4 3.8
2015-Jul-29 01:33N 69°43' E 019°04'1 0.1
2015-Jul-28 14:18N 69°42' E 019°01'0 0.0
2015-Jul-28 13:07N 69°42' E 019°01'0 0.0
2015-Jul-28 12:32N 69°42' E 019°01'8 8.0
2015-Jul-28 11:33N 69°35' E 018°50'1 0.0
2015-Jul-27 13:12N 69°36' E 018°52'5 8.1
2015-Jul-27 12:33N 69°40' E 018°60'2 0.8
2015-Jul-27 10:05N 69°42' E 019°01'0 0.0
2015-Jul-27 04:04N 69°42' E 019°01'0 0.0
2015-Jul-27 03:31N 69°42' E 019°01'0 0.0
2015-Jul-27 02:29N 69°42' E 019°01'0 0.0
2015-Jul-27 01:33N 69°42' E 019°01'0 0.0
2015-Jul-27 00:32N 69°42' E 019°01'0 0.0
2015-Jul-26 23:33N 69°42' E 019°01'0 0.0
2015-Jul-26 22:33N 69°42' E 019°01'0 0.0
2015-Jul-26 21:33N 69°42' E 019°01'0 0.0
2015-Jul-26 20:27N 69°42' E 019°01'0 0.0
2015-Jul-26 19:32N 69°42' E 019°01'0 0.0
2015-Jul-26 18:31N 69°42' E 019°01'2 1.0
2015-Jul-26 16:32N 69°40' E 019°00'1 0.0
2015-Jul-24 22:33N 69°39' E 018°58'5 0.2
2015-Jul-23 23:32N 69°43' E 019°04'1 0.1
2015-Jul-23 01:33N 69°42' E 019°02'  
Track history (hours):
 
Tides and Currents Weather Stations Pressure Air Temp Water Temp Dewpoint Dewpoint Depression Visibility Wind Speed Wind Dir Waves Ship Positions

Trine Charlotte

Last reported at 2015-Aug-02 00:33 UTC. Time now 2015-Aug-04 11:47 UTC.
Position N 69°39' E 018°58'.

Length 66 m; draft 4.6 m.

Type: Cargo ship. MMSI: 257233000.

Date/timePositionNaut miles runAvg speedWind from/ knotsBaromVisibWave heightAir tempDewpointWater temp
2015-Aug-02 00:33N 69°39' E 018°58'0 0.0
2015-Aug-01 23:33N 69°39' E 018°58'0 0.0
2015-Aug-01 22:33N 69°39' E 018°58'0 0.0
2015-Aug-01 21:33N 69°39' E 018°58'0 0.0
2015-Aug-01 20:33N 69°39' E 018°58'0 0.0
2015-Aug-01 19:33N 69°39' E 018°58'0 0.0
2015-Aug-01 18:33N 69°39' E 018°58'0 0.0
2015-Aug-01 17:33N 69°39' E 018°58'0 0.0
2015-Aug-01 16:33N 69°39' E 018°58'0 0.0
2015-Aug-01 15:33N 69°39' E 018°58'0 0.0
2015-Aug-01 14:33N 69°39' E 018°58'0 0.0
2015-Aug-01 13:33N 69°39' E 018°58'0 0.0
2015-Aug-01 12:33N 69°39' E 018°58'0 0.0
2015-Aug-01 11:33N 69°39' E 018°58'0 0.0
2015-Aug-01 10:33N 69°39' E 018°58'0 0.0
2015-Aug-01 09:33N 69°39' E 018°58'0 0.0
2015-Aug-01 08:33N 69°39' E 018°58'0 0.0
2015-Aug-01 07:33N 69°39' E 018°58'0 0.0
2015-Aug-01 06:33N 69°39' E 018°58'0 0.0
2015-Aug-01 05:33N 69°39' E 018°58'0 0.0
2015-Aug-01 04:33N 69°39' E 018°58'0 0.0
2015-Aug-01 03:33N 69°39' E 018°58'0 0.0
2015-Aug-01 02:33N 69°39' E 018°58'0 0.0
2015-Aug-01 01:33N 69°39' E 018°58'0 0.0
2015-Aug-01 00:33N 69°39' E 018°58'0 0.0
2015-Jul-31 23:33N 69°39' E 018°58'0 0.0
2015-Jul-31 22:33N 69°39' E 018°58'0 0.0
2015-Jul-31 21:33N 69°39' E 018°58'0 0.0
2015-Jul-31 20:33N 69°39' E 018°58'0 0.0
2015-Jul-31 19:33N 69°39' E 018°58'0 0.0
2015-Jul-31 18:33N 69°39' E 018°58'0 0.0
2015-Jul-31 17:33N 69°39' E 018°58'0 0.0
2015-Jul-31 16:33N 69°39' E 018°58'0 0.0
2015-Jul-31 15:33N 69°39' E 018°58'0 0.0
2015-Jul-31 14:33N 69°39' E 018°58'0 0.2
2015-Jul-31 13:33N 69°39' E 018°58'3 0.3
2015-Jul-31 04:08N 69°42' E 019°01'0 0.0
2015-Jul-31 03:32N 69°42' E 019°01'0 0.0
2015-Jul-31 02:31N 69°42' E 019°01'0 0.0
2015-Jul-31 01:33N 69°42' E 019°01'2 0.1
2015-Jul-29 13:33N 69°40' E 018°58'0 0.0
2015-Jul-29 12:33N 69°40' E 018°58'0 0.0
2015-Jul-29 11:33N 69°40' E 018°58'0 0.0
2015-Jul-29 08:33N 69°40' E 018°58'0 0.3
2015-Jul-29 07:33N 69°40' E 018°58'0 0.0
2015-Jul-29 06:34N 69°40' E 018°58'0 0.0
2015-Jul-29 05:34N 69°40' E 018°58'0 0.0
2015-Jul-29 04:33N 69°40' E 018°58'0 0.0
2015-Jul-29 03:34N 69°40' E 018°58'0 0.0
2015-Jul-29 02:33N 69°40' E 018°58'4 3.8
2015-Jul-29 01:33N 69°43' E 019°04'1 0.1
2015-Jul-28 14:18N 69°42' E 019°01'0 0.0
2015-Jul-28 13:07N 69°42' E 019°01'0 0.0
2015-Jul-28 12:32N 69°42' E 019°01'8 8.0
2015-Jul-28 11:33N 69°35' E 018°50'1 0.0
2015-Jul-27 13:12N 69°36' E 018°52'5 8.1
2015-Jul-27 12:33N 69°40' E 018°60'2 0.8
2015-Jul-27 10:05N 69°42' E 019°01'0 0.0
2015-Jul-27 04:04N 69°42' E 019°01'0 0.0
2015-Jul-27 03:31N 69°42' E 019°01'0 0.0
2015-Jul-27 02:29N 69°42' E 019°01'0 0.0
2015-Jul-27 01:33N 69°42' E 019°01'0 0.0
2015-Jul-27 00:32N 69°42' E 019°01'0 0.0
2015-Jul-26 23:33N 69°42' E 019°01'0 0.0
2015-Jul-26 22:33N 69°42' E 019°01'0 0.0
2015-Jul-26 21:33N 69°42' E 019°01'0 0.0
2015-Jul-26 20:27N 69°42' E 019°01'0 0.0
2015-Jul-26 19:32N 69°42' E 019°01'0 0.0
2015-Jul-26 18:31N 69°42' E 019°01'2 1.0
2015-Jul-26 16:32N 69°40' E 019°00'1 0.0
2015-Jul-24 22:33N 69°39' E 018°58'5 0.2
2015-Jul-23 23:32N 69°43' E 019°04'1 0.1
2015-Jul-23 01:33N 69°42' E 019°02'  

Dump ship's entire track history